Time;durP1;ratioP1;P1;durP2;ratioP2;P2;SDS_P1;SDS_P2;PMS_P1;PMS_P2;Temp;Humidity;BMP_temperature;BMP_pressure;BME280_temperature;BME280_humidity;BME280_pressure;Samples;Min_cycle;Max_cycle;Signal;HPM_P1;HPM_P2
2022/03/17 00:00:34;;;;;;;7.15;1.45;;;24.10;99.90;;;;;;5042998;28;20026;-67
2022/03/17 00:03:02;;;;;;;9.27;2.70;;;24.10;99.90;;;;;;5044387;28;20042;-68
2022/03/17 00:05:30;;;;;;;9.50;1.60;;;24.40;99.90;;;;;;5039751;28;20026;-68
2022/03/17 00:07:58;;;;;;;7.32;2.00;;;24.50;99.90;;;;;;5049298;28;20048;-68
2022/03/17 00:10:25;;;;;;;13.10;2.33;;;24.50;99.90;;;;;;5053790;28;20037;-68
2022/03/17 00:12:53;;;;;;;6.93;1.70;;;24.50;99.90;;;;;;5051898;28;20041;-68
2022/03/17 00:15:21;;;;;;;7.13;1.80;;;24.70;99.90;;;;;;5051305;28;20017;-68
2022/03/17 00:17:49;;;;;;;10.15;1.63;;;24.30;99.90;;;;;;5041584;28;20078;-67
2022/03/17 00:20:16;;;;;;;13.73;1.98;;;24.60;99.90;;;;;;5032499;28;20037;-68
2022/03/17 00:22:44;;;;;;;7.15;1.98;;;24.70;99.90;;;;;;5028799;28;20084;-67
2022/03/17 00:25:12;;;;;;;5.03;1.15;;;24.80;99.90;;;;;;5029821;28;20060;-67
2022/03/17 00:27:40;;;;;;;9.70;1.98;;;24.50;99.90;;;;;;5026853;28;20060;-67
2022/03/17 00:30:09;;;;;;;9.40;1.73;;;24.50;99.90;;;;;;5030636;28;20505;-67
2022/03/17 00:32:41;;;;;;;6.13;1.40;;;24.70;99.90;;;;;;5021435;28;20030;-68
2022/03/17 00:37:50;;;;;;;10.90;1.80;;;24.90;99.90;;;;;;5025334;28;20397;-68
2022/03/17 00:40:18;;;;;;;8.13;1.63;;;24.80;99.90;;;;;;5036560;28;20040;-68
2022/03/17 00:42:46;;;;;;;10.82;1.83;;;24.80;99.90;;;;;;5032726;28;20029;-68
2022/03/17 00:45:14;;;;;;;9.82;2.17;;;24.80;99.90;;;;;;5032390;28;20367;-68
2022/03/17 00:47:43;;;;;;;8.45;2.05;;;24.90;99.90;;;;;;5024584;28;20058;-67
2022/03/17 00:50:12;;;;;;;8.63;2.08;;;25.00;99.90;;;;;;5031360;28;20474;-68
2022/03/17 00:52:39;;;;;;;5.65;1.48;;;24.70;99.90;;;;;;5030388;28;20029;-68
2022/03/17 00:55:08;;;;;;;11.57;1.90;;;24.50;99.90;;;;;;5045039;28;20032;-66
2022/03/17 00:57:40;;;;;;;7.40;1.80;;;24.40;99.90;;;;;;5044397;28;20052;-67
2022/03/17 01:00:14;;;;;;;8.90;1.70;;;24.20;99.90;;;;;;5044947;28;20044;-67
2022/03/17 01:02:47;;;;;;;10.55;1.73;;;24.40;99.90;;;;;;5050811;28;20045;-68
2022/03/17 01:05:17;;;;;;;7.63;1.98;;;24.80;99.90;;;;;;5024471;28;20031;-66
2022/03/17 01:07:45;;;;;;;8.15;1.45;;;25.00;99.90;;;;;;5034050;28;20038;-66
2022/03/17 01:10:18;;;;;;;11.05;1.60;;;25.00;99.90;;;;;;5038011;28;20037;-67
2022/03/17 01:12:47;;;;;;;8.20;1.80;;;24.80;99.90;;;;;;5038336;28;20032;-65
2022/03/17 01:15:17;;;;;;;6.63;1.85;;;24.60;99.90;;;;;;5034449;28;20409;-65
2022/03/17 01:17:45;;;;;;;7.47;1.98;;;24.50;99.90;;;;;;5031059;28;20026;-65
2022/03/17 01:20:13;;;;;;;4.20;1.35;;;24.70;99.90;;;;;;5037655;28;20532;-65
2022/03/17 01:22:41;;;;;;;10.35;1.65;;;25.00;99.90;;;;;;5038277;28;20036;-65
2022/03/17 01:25:10;;;;;;;4.57;1.27;;;25.30;99.90;;;;;;5044957;28;20032;-66
2022/03/17 01:27:39;;;;;;;8.55;1.48;;;25.30;99.90;;;;;;5039366;28;20045;-66
2022/03/17 01:30:17;;;;;;;7.38;1.48;;;25.60;99.90;;;;;;5041535;28;20040;-66
2022/03/17 01:32:45;;;;;;;8.10;1.27;;;25.80;99.90;;;;;;5044810;28;20028;-66
2022/03/17 01:35:13;;;;;;;7.50;1.38;;;25.80;99.90;;;;;;5050056;28;20045;-67
2022/03/17 01:37:42;;;;;;;6.97;1.88;;;25.90;99.90;;;;;;5039168;28;20363;-66
2022/03/17 01:40:10;;;;;;;5.78;1.25;;;25.90;99.90;;;;;;5049849;28;20127;-66
2022/03/17 01:42:39;;;;;;;10.30;1.95;;;25.70;99.90;;;;;;5043850;28;20033;-66
2022/03/17 01:45:08;;;;;;;8.27;1.10;;;25.40;99.90;;;;;;5044590;28;20535;-67
2022/03/17 01:47:36;;;;;;;10.32;1.65;;;25.10;99.90;;;;;;5049152;28;20021;-67
2022/03/17 01:50:11;;;;;;;7.13;1.30;;;25.10;99.90;;;;;;5043852;28;20136;-67
2022/03/17 01:52:39;;;;;;;5.20;1.45;;;25.00;99.90;;;;;;5053761;28;20033;-66
2022/03/17 01:55:08;;;;;;;10.32;2.08;;;25.00;99.90;;;;;;5050640;28;20018;-66
2022/03/17 01:57:35;;;;;;;6.68;1.20;;;24.90;99.90;;;;;;5038212;28;20022;-66
2022/03/17 02:00:06;;;;;;;8.13;1.42;;;24.90;99.90;;;;;;5053700;28;20093;-67
2022/03/17 02:02:36;;;;;;;;;;;24.90;99.90;;;;;;5049012;28;20067;-67
2022/03/17 02:05:05;;;;;;;9.57;1.33;;;25.00;99.90;;;;;;5053122;28;19995;-66
2022/03/17 02:07:32;;;;;;;8.60;1.55;;;24.90;99.90;;;;;;5057010;28;20117;-66
2022/03/17 02:10:00;;;;;;;4.95;1.08;;;24.90;99.90;;;;;;5051309;28;20033;-66
2022/03/17 02:15:13;;;;;;;7.40;1.83;;;24.70;99.90;;;;;;5050123;28;20068;-66
2022/03/17 02:17:40;;;;;;;8.27;1.50;;;25.10;99.90;;;;;;5051051;28;20030;-66
2022/03/17 02:20:11;;;;;;;5.53;0.90;;;25.40;99.90;;;;;;5043417;28;20125;-66
2022/03/17 02:22:45;;;;;;;6.03;1.45;;;25.70;99.90;;;;;;5050805;28;20021;-66
2022/03/17 02:28:02;;;;;;;11.15;1.20;;;25.90;99.90;;;;;;5047639;28;20373;-67
2022/03/17 02:30:31;;;;;;;7.05;1.42;;;26.10;99.90;;;;;;5045850;28;20032;-67
2022/03/17 02:33:01;;;;;;;7.32;0.95;;;26.00;99.90;;;;;;5069800;28;20044;-67
2022/03/17 02:35:28;;;;;;;8.52;1.10;;;25.90;99.90;;;;;;5051591;28;20013;-67
2022/03/17 02:37:58;;;;;;;5.55;0.95;;;25.80;99.90;;;;;;5055045;28;20072;-67
2022/03/17 02:40:25;;;;;;;6.82;1.42;;;26.10;99.90;;;;;;5053240;28;20014;-68
2022/03/17 02:42:54;;;;;;;6.30;1.23;;;26.00;99.90;;;;;;5051935;28;20046;-67
2022/03/17 02:45:23;;;;;;;10.30;1.60;;;26.20;99.90;;;;;;5056876;28;20013;-67
2022/03/17 02:47:51;;;;;;;7.28;1.10;;;26.10;99.90;;;;;;5055045;28;20030;-68
2022/03/17 02:50:18;;;;;;;7.40;1.27;;;26.10;99.90;;;;;;5056011;28;20025;-67
2022/03/17 02:52:46;;;;;;;9.27;1.50;;;26.30;99.90;;;;;;5054254;28;20018;-68
2022/03/17 02:55:15;;;;;;;3.35;1.30;;;26.00;99.90;;;;;;5056391;28;20033;-68
2022/03/17 02:57:46;;;;;;;7.25;1.33;;;25.80;99.90;;;;;;5055048;28;20056;-68
2022/03/17 03:00:14;;;;;;;7.28;1.10;;;26.00;99.90;;;;;;5045667;28;20033;-67
2022/03/17 03:02:44;;;;;;;7.15;1.60;;;26.10;99.90;;;;;;5054259;28;20029;-68
2022/03/17 03:05:11;;;;;;;7.78;1.10;;;25.80;99.90;;;;;;5035981;28;20006;-68
2022/03/17 03:07:39;;;;;;;4.97;0.75;;;25.80;99.90;;;;;;5037975;28;20021;-68
2022/03/17 03:10:07;;;;;;;7.50;1.15;;;25.90;99.90;;;;;;5044159;28;20018;-68
2022/03/17 03:12:35;;;;;;;4.95;0.77;;;25.90;99.90;;;;;;5048316;28;20059;-67
2022/03/17 03:15:03;;;;;;;6.57;1.15;;;25.90;99.90;;;;;;5047411;28;20021;-67
2022/03/17 03:17:30;;;;;;;7.05;1.40;;;25.90;99.90;;;;;;5050027;28;20099;-67
2022/03/17 03:19:57;;;;;;;8.68;1.05;;;25.90;99.90;;;;;;5053125;28;20037;-67
2022/03/17 03:22:29;;;;;;;7.20;1.00;;;25.80;99.90;;;;;;5056905;28;20030;-67
2022/03/17 03:24:59;;;;;;;7.60;1.60;;;26.10;99.90;;;;;;5045783;28;20113;-67
2022/03/17 03:27:27;;;;;;;7.25;1.33;;;25.90;99.90;;;;;;5042211;28;20537;-67
2022/03/17 03:29:56;;;;;;;5.82;1.48;;;25.80;99.90;;;;;;5044944;28;20022;-67
2022/03/17 03:32:24;;;;;;;7.07;1.30;;;25.70;99.90;;;;;;5050322;28;20032;-67
2022/03/17 03:34:52;;;;;;;7.05;1.30;;;25.60;99.90;;;;;;5054324;28;20026;-68
2022/03/17 03:37:23;;;;;;;6.28;1.05;;;25.50;99.90;;;;;;5046464;28;20041;-67
2022/03/17 03:39:55;;;;;;;6.57;1.23;;;25.40;99.90;;;;;;5049975;28;20028;-68
2022/03/17 03:42:24;;;;;;;7.38;1.20;;;25.20;99.90;;;;;;5061764;28;20021;-68
2022/03/17 03:44:51;;;;;;;9.93;1.90;;;25.20;99.90;;;;;;5052022;28;20021;-67
2022/03/17 03:47:19;;;;;;;5.00;1.05;;;25.30;99.90;;;;;;5056035;28;20040;-67
2022/03/17 03:49:46;;;;;;;7.45;1.13;;;25.50;99.90;;;;;;5050809;28;20041;-67
2022/03/17 03:52:14;;;;;;;5.95;1.00;;;25.40;99.90;;;;;;5053643;28;20017;-67
2022/03/17 03:54:42;;;;;;;5.93;1.20;;;25.40;99.90;;;;;;5056332;28;20018;-67
2022/03/17 03:57:10;;;;;;;9.70;1.63;;;25.50;99.90;;;;;;5047629;28;20045;-67
2022/03/17 03:59:38;;;;;;;7.15;1.17;;;25.40;99.90;;;;;;5055310;28;20014;-67
2022/03/17 04:02:09;;;;;;;8.82;1.60;;;25.30;99.90;;;;;;5055861;28;20025;-67
2022/03/17 04:04:41;;;;;;;4.90;1.00;;;25.40;99.90;;;;;;5056662;28;20042;-67
2022/03/17 04:07:11;;;;;;;4.65;1.25;;;25.40;99.90;;;;;;5053600;28;20029;-67
2022/03/17 04:09:42;;;;;;;5.75;1.08;;;25.50;99.90;;;;;;5054051;28;20073;-67
2022/03/17 04:12:12;;;;;;;4.85;1.23;;;25.40;99.90;;;;;;5059335;28;20081;-67
2022/03/17 04:14:40;;;;;;;11.70;1.50;;;25.30;99.90;;;;;;5058843;28;20065;-67
2022/03/17 04:17:08;;;;;;;9.20;1.17;;;25.20;99.90;;;;;;5058351;28;20034;-67
2022/03/17 04:19:35;;;;;;;7.15;1.30;;;25.20;99.90;;;;;;5053529;28;20025;-66
2022/03/17 04:22:02;;;;;;;4.75;1.30;;;25.20;99.90;;;;;;5054170;28;20020;-67
2022/03/17 04:24:30;;;;;;;5.13;0.93;;;25.20;99.90;;;;;;5056319;28;20009;-67
2022/03/17 04:26:57;;;;;;;3.70;0.88;;;25.20;99.90;;;;;;5058570;28;20012;-67
2022/03/17 04:29:24;;;;;;;6.00;1.48;;;25.10;99.90;;;;;;5054955;28;20026;-67
2022/03/17 04:31:51;;;;;;;5.55;1.25;;;25.00;99.90;;;;;;5053961;28;20028;-67
2022/03/17 04:34:19;;;;;;;8.73;1.42;;;25.00;99.90;;;;;;5055480;28;20026;-67
2022/03/17 04:36:46;;;;;;;7.82;1.52;;;25.00;99.90;;;;;;5058503;28;20047;-67
2022/03/17 04:39:13;;;;;;;3.55;1.35;;;25.10;99.90;;;;;;5054649;28;20030;-67
2022/03/17 04:41:41;;;;;;;6.00;1.63;;;25.20;99.90;;;;;;5055424;28;20113;-68
2022/03/17 04:44:09;;;;;;;4.93;0.90;;;25.30;99.90;;;;;;5054530;28;20042;-67
2022/03/17 04:46:37;;;;;;;7.88;1.35;;;25.20;99.90;;;;;;5058469;28;20036;-67
2022/03/17 04:49:04;;;;;;;5.63;1.25;;;25.20;99.90;;;;;;5058125;28;20033;-67
2022/03/17 04:51:32;;;;;;;9.35;1.52;;;25.20;99.90;;;;;;5058132;28;20029;-67
2022/03/17 04:54:00;;;;;;;7.38;1.77;;;25.10;99.90;;;;;;5055635;28;20048;-67
2022/03/17 04:56:27;;;;;;;7.38;1.30;;;25.00;99.90;;;;;;5045105;28;20048;-67
2022/03/17 04:58:55;;;;;;;6.78;1.00;;;25.00;99.90;;;;;;5054634;28;20021;-67
2022/03/17 05:01:23;;;;;;;7.78;1.38;;;25.00;99.90;;;;;;5051200;28;20025;-67
2022/03/17 05:03:50;;;;;;;7.65;0.98;;;25.10;99.90;;;;;;5050934;28;20032;-67
2022/03/17 05:06:18;;;;;;;4.95;1.45;;;25.00;99.90;;;;;;5058867;28;20032;-67
2022/03/17 05:08:45;;;;;;;6.43;1.25;;;25.00;99.90;;;;;;5055712;28;20010;-67
2022/03/17 05:11:16;;;;;;;5.75;1.45;;;24.90;99.90;;;;;;5053370;28;20092;-67
2022/03/17 05:13:43;;;;;;;4.93;0.77;;;24.90;99.90;;;;;;5051634;28;20014;-67
2022/03/17 05:16:10;;;;;;;5.53;0.75;;;24.90;99.90;;;;;;5049692;28;20114;-67
2022/03/17 05:18:38;;;;;;;5.40;0.82;;;24.90;99.90;;;;;;5054615;28;20010;-67
2022/03/17 05:21:06;;;;;;;7.60;1.17;;;24.80;99.90;;;;;;5052786;28;20024;-67
2022/03/17 05:23:35;;;;;;;3.75;0.80;;;24.70;99.90;;;;;;5044085;28;20014;-67
2022/03/17 05:26:02;;;;;;;7.90;1.50;;;24.70;99.90;;;;;;5050107;28;20022;-67
2022/03/17 05:28:30;;;;;;;3.78;0.98;;;24.70;99.90;;;;;;5048265;28;20046;-67
2022/03/17 05:30:58;;;;;;;6.22;1.20;;;24.80;99.90;;;;;;5052599;28;20005;-67
2022/03/17 05:33:25;;;;;;;4.65;0.60;;;24.80;99.90;;;;;;5044904;28;20059;-66
2022/03/17 05:35:52;;;;;;;8.02;1.15;;;24.70;99.90;;;;;;5047467;28;20037;-66
2022/03/17 05:38:20;;;;;;;5.47;1.08;;;24.70;99.90;;;;;;5048182;28;20048;-67
2022/03/17 05:40:47;;;;;;;7.30;1.08;;;24.70;99.90;;;;;;5049080;28;20029;-67
2022/03/17 05:43:15;;;;;;;5.43;1.00;;;24.60;99.90;;;;;;5050030;28;20029;-67
2022/03/17 05:45:43;;;;;;;5.40;0.63;;;24.60;99.90;;;;;;5045897;28;20029;-65
2022/03/17 05:48:11;;;;;;;5.60;0.85;;;24.50;99.90;;;;;;5054199;28;20044;-66
2022/03/17 05:50:41;;;;;;;4.70;0.80;;;24.50;99.90;;;;;;5045361;28;20074;-66
2022/03/17 05:53:09;;;;;;;4.88;0.93;;;24.50;99.90;;;;;;5057306;28;20069;-67
2022/03/17 05:55:37;;;;;;;4.97;0.52;;;24.40;99.90;;;;;;5051984;28;20049;-67
2022/03/17 05:58:05;;;;;;;4.63;0.95;;;24.50;99.90;;;;;;5046826;28;20022;-66
2022/03/17 06:00:35;;;;;;;5.10;0.90;;;24.50;99.90;;;;;;5057305;28;20024;-67
2022/03/17 06:03:04;;;;;;;5.30;0.60;;;24.50;99.90;;;;;;5055856;28;20038;-67
2022/03/17 06:05:31;;;;;;;5.22;0.82;;;24.50;99.90;;;;;;5056315;28;20030;-67
2022/03/17 06:08:03;;;;;;;3.15;0.70;;;24.40;99.90;;;;;;5048996;28;20120;-66
2022/03/17 06:10:32;;;;;;;5.95;1.05;;;24.30;99.90;;;;;;5058308;28;20024;-67
2022/03/17 06:13:02;;;;;;;5.18;0.65;;;24.30;99.90;;;;;;5049353;28;20091;-63
2022/03/17 06:15:30;;;;;;;4.82;0.77;;;24.30;99.90;;;;;;5043248;28;20021;-63
2022/03/17 06:18:02;;;;;;;3.63;1.08;;;24.30;99.90;;;;;;5040834;28;20048;-65
2022/03/17 06:20:32;;;;;;;6.80;0.85;;;24.20;99.90;;;;;;5041719;28;20025;-64
2022/03/17 06:23:01;;;;;;;6.93;0.98;;;24.10;99.90;;;;;;5041402;28;20030;-63
2022/03/17 06:25:31;;;;;;;6.43;1.27;;;24.10;99.90;;;;;;5037878;28;20083;-63
2022/03/17 06:27:59;;;;;;;4.25;1.00;;;24.10;99.90;;;;;;5041901;28;20029;-63
2022/03/17 06:30:30;;;;;;;6.55;1.23;;;24.10;99.90;;;;;;5035509;28;20021;-64
2022/03/17 06:32:59;;;;;;;6.65;1.10;;;24.10;99.90;;;;;;5030122;28;20025;-64
2022/03/17 06:35:27;;;;;;;8.73;1.30;;;24.10;99.90;;;;;;5025854;28;20029;-64
2022/03/17 06:37:56;;;;;;;5.63;0.88;;;24.10;99.90;;;;;;5029509;28;20028;-64
2022/03/17 06:40:25;;;;;;;4.32;1.13;;;24.00;99.90;;;;;;5034917;28;20038;-63
2022/03/17 06:42:53;;;;;;;4.88;0.88;;;24.00;99.90;;;;;;5035231;28;20021;-64
2022/03/17 06:45:20;;;;;;;4.10;0.90;;;24.00;99.90;;;;;;5030113;28;20017;-63
2022/03/17 06:47:47;;;;;;;6.22;1.50;;;24.00;99.90;;;;;;5031645;28;20025;-64
2022/03/17 06:50:16;;;;;;;6.60;0.98;;;24.00;99.90;;;;;;5033752;28;20041;-64
2022/03/17 06:52:44;;;;;;;3.97;0.82;;;24.10;99.90;;;;;;5037832;28;20115;-63
2022/03/17 06:55:12;;;;;;;4.53;0.70;;;24.10;99.90;;;;;;5033350;28;20029;-64
2022/03/17 06:57:40;;;;;;;6.20;1.15;;;24.10;99.90;;;;;;5036887;28;20025;-64
2022/03/17 07:00:10;;;;;;;5.20;1.55;;;24.20;99.90;;;;;;5037743;28;20379;-64
2022/03/17 07:02:37;;;;;;;3.60;0.82;;;24.10;99.90;;;;;;5034371;28;20068;-64
2022/03/17 07:05:06;;;;;;;11.82;1.70;;;24.10;99.90;;;;;;5038584;28;20045;-64
2022/03/17 07:07:34;;;;;;;5.50;0.88;;;24.10;99.90;;;;;;5041042;28;20055;-64
2022/03/17 07:10:03;;;;;;;6.15;1.10;;;24.00;99.90;;;;;;5040059;28;20036;-64
2022/03/17 07:12:30;;;;;;;5.63;0.90;;;24.00;99.90;;;;;;5041079;28;20422;-64
2022/03/17 07:14:57;;;;;;;5.65;1.23;;;23.90;99.90;;;;;;5027697;28;20025;-64
2022/03/17 07:17:26;;;;;;;5.38;1.55;;;23.90;99.90;;;;;;5037902;28;20041;-64
2022/03/17 07:19:59;;;;;;;6.95;1.85;;;23.90;99.90;;;;;;5036150;28;20021;-64
2022/03/17 07:22:27;;;;;;;4.80;1.40;;;23.90;99.90;;;;;;5023300;28;20033;-64
2022/03/17 07:24:55;;;;;;;10.65;1.50;;;23.90;99.90;;;;;;5040954;28;20327;-63
2022/03/17 07:27:23;;;;;;;5.70;0.90;;;23.90;99.90;;;;;;5037276;28;20090;-63
2022/03/17 07:29:51;;;;;;;6.20;1.30;;;23.80;99.90;;;;;;5040236;28;20040;-63
2022/03/17 07:32:19;;;;;;;8.18;1.50;;;23.80;99.90;;;;;;5040309;28;20040;-63
2022/03/17 07:34:47;;;;;;;9.25;1.20;;;23.70;99.90;;;;;;5038143;28;20095;-64
2022/03/17 07:37:14;;;;;;;7.57;1.27;;;23.70;99.90;;;;;;5028106;28;20108;-64
2022/03/17 07:39:42;;;;;;;5.95;1.08;;;23.70;99.90;;;;;;5037922;28;20030;-63
2022/03/17 07:42:09;;;;;;;7.47;1.20;;;23.70;99.90;;;;;;5039795;28;20425;-63
2022/03/17 07:44:37;;;;;;;4.70;1.00;;;23.60;99.90;;;;;;5040804;28;20029;-64
2022/03/17 07:47:07;;;;;;;9.40;1.08;;;23.60;99.90;;;;;;5045088;28;20029;-63
2022/03/17 07:49:37;;;;;;;8.55;1.45;;;23.60;99.90;;;;;;5045193;28;20017;-64
2022/03/17 07:52:06;;;;;;;6.38;0.95;;;23.60;99.90;;;;;;5045668;28;20026;-64
2022/03/17 07:54:34;;;;;;;6.10;1.35;;;23.60;99.90;;;;;;5045739;28;20034;-63
2022/03/17 07:57:05;;;;;;;7.72;2.25;;;23.50;99.90;;;;;;5045916;28;20474;-64
2022/03/17 07:59:34;;;;;;;8.25;1.02;;;23.50;99.90;;;;;;5045439;28;20025;-64
2022/03/17 08:02:03;;;;;;;4.93;0.90;;;23.40;99.90;;;;;;5046587;28;20022;-64
2022/03/17 08:04:31;;;;;;;7.47;1.27;;;23.50;99.90;;;;;;5046675;28;20046;-63
2022/03/17 08:07:00;;;;;;;4.43;0.85;;;23.40;99.90;;;;;;5047756;28;20072;-64
2022/03/17 08:09:28;;;;;;;5.30;0.88;;;23.40;99.90;;;;;;5042843;28;20052;-63
2022/03/17 08:11:56;;;;;;;6.93;1.65;;;23.40;99.90;;;;;;5043748;28;20029;-63
2022/03/17 08:14:24;;;;;;;7.75;1.67;;;23.40;99.90;;;;;;5042673;28;20053;-64
2022/03/17 08:16:51;;;;;;;6.65;1.52;;;23.30;99.90;;;;;;5045061;28;20108;-63
2022/03/17 08:19:19;;;;;;;10.85;1.73;;;23.30;99.90;;;;;;5030122;28;20053;-64
2022/03/17 08:21:46;;;;;;;6.80;1.20;;;23.30;99.90;;;;;;5029789;28;20028;-63
2022/03/17 08:24:13;;;;;;;4.40;1.17;;;23.30;99.90;;;;;;5038815;28;20029;-64
2022/03/17 08:26:41;;;;;;;9.52;1.23;;;23.30;99.90;;;;;;5039998;28;20049;-64
2022/03/17 08:29:11;;;;;;;4.20;1.02;;;23.20;99.90;;;;;;5037083;28;20049;-64
2022/03/17 08:31:38;;;;;;;8.52;1.35;;;23.20;99.90;;;;;;5044923;28;20049;-63
2022/03/17 08:34:06;;;;;;;6.32;1.40;;;23.30;99.90;;;;;;5031648;28;20475;-64
2022/03/17 08:36:33;;;;;;;8.30;0.90;;;23.20;99.90;;;;;;5023111;28;20034;-64
2022/03/17 08:39:00;;;;;;;4.82;0.80;;;23.20;99.90;;;;;;5035418;28;20038;-64
2022/03/17 08:41:28;;;;;;;3.70;1.15;;;23.20;99.90;;;;;;5042784;28;20037;-63
2022/03/17 08:43:55;;;;;;;6.97;1.80;;;23.20;99.90;;;;;;5045561;28;20026;-64
2022/03/17 08:49:22;;;;;;;5.72;1.50;;;23.10;99.90;;;;;;4977834;28;20030;-64
2022/03/17 08:51:56;;;;;;;7.53;1.33;;;23.10;99.90;;;;;;5028888;28;20035;-64
2022/03/17 08:54:27;;;;;;;6.88;1.48;;;23.10;99.90;;;;;;5038123;28;20013;-63
2022/03/17 08:56:59;;;;;;;7.75;0.90;;;23.10;99.90;;;;;;5040165;28;20064;-63
2022/03/17 08:59:31;;;;;;;9.18;1.42;;;23.10;99.90;;;;;;5023857;28;20022;-63
2022/03/17 09:02:03;;;;;;;7.32;1.48;;;23.10;99.90;;;;;;5043090;28;20485;-64
2022/03/17 09:04:30;;;;;;;4.97;1.20;;;23.00;99.90;;;;;;5040052;28;20129;-64
2022/03/17 09:07:02;;;;;;;5.88;0.80;;;23.10;99.90;;;;;;5048374;28;20061;-63
2022/03/17 09:09:31;;;;;;;7.63;1.08;;;23.00;99.90;;;;;;5044189;28;20425;-63
2022/03/17 09:11:59;;;;;;;5.55;1.00;;;23.00;99.90;;;;;;5030565;28;20018;-64
2022/03/17 09:14:27;;;;;;;4.45;1.33;;;23.00;99.90;;;;;;5042235;28;20469;-63
2022/03/17 09:16:54;;;;;;;7.43;1.73;;;23.10;99.90;;;;;;5047901;28;20029;-63
2022/03/17 09:19:21;;;;;;;9.00;1.02;;;23.10;99.90;;;;;;5044722;28;20037;-64
2022/03/17 09:21:49;;;;;;;8.20;1.45;;;23.00;99.90;;;;;;5041990;28;20060;-64
2022/03/17 09:24:16;;;;;;;6.90;1.48;;;23.00;99.90;;;;;;5040698;28;20608;-63
2022/03/17 09:26:43;;;;;;;8.45;1.48;;;23.10;99.90;;;;;;5045634;28;20045;-63
2022/03/17 09:29:11;;;;;;;9.77;1.60;;;23.00;99.90;;;;;;5039145;28;20025;-63
2022/03/17 09:31:38;;;;;;;7.75;1.55;;;23.00;99.90;;;;;;5045182;28;20032;-64
2022/03/17 09:34:05;;;;;;;5.80;0.90;;;23.00;99.90;;;;;;5034213;28;20045;-64
2022/03/17 09:36:33;;;;;;;6.15;1.30;;;23.10;99.90;;;;;;5024160;28;20089;-64
2022/03/17 09:41:45;;;;;;;6.70;1.20;;;23.00;99.90;;;;;;5030404;28;20083;-64
2022/03/17 09:44:14;;;;;;;3.67;0.80;;;23.00;99.90;;;;;;5042393;28;20382;-64
2022/03/17 09:46:44;;;;;;;8.57;1.58;;;22.90;99.90;;;;;;5026509;28;20026;-64
2022/03/17 09:49:12;;;;;;;8.43;1.42;;;22.90;99.90;;;;;;5024456;28;20108;-63
2022/03/17 09:51:42;;;;;;;5.90;0.93;;;22.90;99.90;;;;;;5023126;28;20108;-64
2022/03/17 09:54:10;;;;;;;5.50;1.00;;;22.80;99.90;;;;;;5041175;28;20033;-64
2022/03/17 09:56:37;;;;;;;6.18;0.88;;;22.80;99.90;;;;;;5039936;28;20048;-64
2022/03/17 09:59:06;;;;;;;3.95;0.80;;;22.80;99.90;;;;;;5039654;28;20029;-64
2022/03/17 10:01:34;;;;;;;4.95;0.80;;;22.80;99.90;;;;;;5038723;28;20029;-64
2022/03/17 10:04:03;;;;;;;7.65;1.30;;;22.80;99.90;;;;;;5025569;28;20045;-64
2022/03/17 10:06:31;;;;;;;4.55;0.88;;;22.80;99.90;;;;;;5035865;28;20065;-64
2022/03/17 10:08:59;;;;;;;6.40;0.82;;;22.80;99.90;;;;;;5036613;28;20086;-64
2022/03/17 10:11:31;;;;;;;4.50;1.15;;;22.80;99.90;;;;;;5040899;28;20030;-64
2022/03/17 10:14:00;;;;;;;6.07;1.30;;;22.80;99.90;;;;;;5041256;28;20421;-64
2022/03/17 10:16:28;;;;;;;8.32;1.52;;;22.80;99.90;;;;;;5040867;28;20021;-64
2022/03/17 10:19:14;;;;;;;7.35;1.73;;;22.70;99.90;;;;;;5037695;28;20384;-64
2022/03/17 10:21:42;;;;;;;9.10;1.38;;;22.70;99.90;;;;;;5043409;28;20051;-64
2022/03/17 10:24:10;;;;;;;6.45;1.33;;;22.70;99.90;;;;;;5039785;28;20437;-64
2022/03/17 10:26:51;;;;;;;6.78;1.15;;;22.70;99.90;;;;;;5041144;28;20036;-64
2022/03/17 10:29:22;;;;;;;8.15;1.50;;;22.70;99.90;;;;;;5043348;28;20466;-63
2022/03/17 10:32:15;;;;;;;8.02;1.52;;;22.70;99.90;;;;;;5041872;28;20041;-64
2022/03/17 10:34:48;;;;;;;7.70;1.27;;;22.70;99.90;;;;;;5040317;28;20018;-63
2022/03/17 10:37:17;;;;;;;4.55;0.98;;;22.70;99.90;;;;;;5028175;28;20025;-63
2022/03/17 10:39:47;;;;;;;10.85;2.05;;;22.70;99.90;;;;;;5023895;28;20537;-63
2022/03/17 10:42:21;;;;;;;8.32;1.10;;;22.70;99.90;;;;;;5029532;28;20477;-64
2022/03/17 10:44:50;;;;;;;6.78;1.00;;;22.70;99.90;;;;;;5036739;28;20474;-64
2022/03/17 10:47:24;;;;;;;6.80;1.27;;;22.70;99.90;;;;;;5036443;28;20037;-64
2022/03/17 10:50:09;;;;;;;7.03;1.10;;;22.70;99.90;;;;;;5038222;28;20413;-64
2022/03/17 10:52:44;;;;;;;11.25;1.10;;;22.70;99.90;;;;;;5036748;28;20032;-64
2022/03/17 10:55:12;;;;;;;9.55;1.50;;;22.70;99.90;;;;;;5039920;28;20591;-63
2022/03/17 10:57:40;;;;;;;6.57;1.40;;;22.70;99.90;;;;;;5039784;28;20072;-63
2022/03/17 11:00:20;;;;;;;12.27;1.15;;;22.70;99.90;;;;;;5040542;28;20009;-64
2022/03/17 11:02:57;;;;;;;5.45;0.75;;;22.80;99.90;;;;;;5053586;28;20009;-67
2022/03/17 11:05:27;;;;;;;6.93;1.08;;;22.70;99.90;;;;;;5049816;28;20040;-67
2022/03/17 11:07:56;;;;;;;16.05;1.75;;;22.70;99.90;;;;;;5049892;28;20002;-67
2022/03/17 11:10:24;;;;;;;5.35;1.40;;;22.80;99.90;;;;;;5047285;28;20013;-67
2022/03/17 11:12:51;;;;;;;7.78;1.67;;;22.80;99.90;;;;;;5051405;28;20033;-66
2022/03/17 11:15:30;;;;;;;8.70;1.73;;;22.70;99.90;;;;;;5051074;28;20034;-66
2022/03/17 11:18:21;;;;;;;11.50;1.77;;;22.70;99.90;;;;;;5048923;28;20132;-66
2022/03/17 11:20:49;;;;;;;8.20;1.30;;;22.70;99.90;;;;;;5047766;28;20030;-67
2022/03/17 11:23:24;;;;;;;11.32;1.65;;;22.70;99.90;;;;;;5053984;28;20034;-66
2022/03/17 11:25:54;;;;;;;6.18;1.35;;;22.70;99.90;;;;;;5048346;28;20078;-66
2022/03/17 11:28:37;;;;;;;9.63;2.00;;;22.70;99.90;;;;;;5048650;28;20040;-66
2022/03/17 11:31:08;;;;;;;9.10;1.50;;;22.70;99.90;;;;;;5044349;28;20018;-66
2022/03/17 11:33:45;;;;;;;7.45;1.50;;;22.70;99.90;;;;;;5048975;28;20033;-66
2022/03/17 11:36:21;;;;;;;9.18;1.27;;;22.70;99.90;;;;;;5054962;28;20040;-66
2022/03/17 11:38:55;;;;;;;9.02;1.33;;;22.70;99.90;;;;;;5052937;28;20109;-66
2022/03/17 11:41:22;;;;;;;;;;;22.70;99.90;;;;;;5056561;28;20026;-66
2022/03/17 11:43:49;;;;;;;8.68;1.20;;;22.60;99.90;;;;;;5051306;28;19913;-66
2022/03/17 11:46:21;;;;;;;8.82;1.83;;;22.70;99.90;;;;;;5056160;28;20053;-66
2022/03/17 11:48:51;;;;;;;6.82;0.95;;;22.60;99.90;;;;;;5055203;28;20039;-66
2022/03/17 11:51:20;;;;;;;8.05;1.40;;;22.60;99.90;;;;;;5056261;28;20017;-66
2022/03/17 11:53:53;;;;;;;7.88;1.50;;;22.60;99.90;;;;;;5054503;28;20049;-66
2022/03/17 11:56:44;;;;;;;10.63;1.77;;;22.60;99.90;;;;;;5053363;28;20033;-66
2022/03/17 11:59:16;;;;;;;7.95;1.65;;;22.60;99.90;;;;;;5045525;28;20267;-66
2022/03/17 12:01:48;;;;;;;6.88;1.35;;;22.60;99.90;;;;;;5051186;28;20049;-66
2022/03/17 12:04:34;;;;;;;7.78;1.85;;;22.60;99.90;;;;;;5053005;28;20065;-67
2022/03/17 12:07:18;;;;;;;7.05;1.55;;;22.60;99.90;;;;;;5045258;28;20016;-67
2022/03/17 12:09:46;;;;;;;9.57;2.00;;;22.60;99.90;;;;;;5050867;28;20034;-67
2022/03/17 12:12:29;;;;;;;11.43;1.40;;;22.60;99.90;;;;;;5054110;28;20085;-66
2022/03/17 12:14:59;;;;;;;11.45;2.10;;;22.60;99.90;;;;;;5040237;28;20069;-66
2022/03/17 12:17:30;;;;;;;7.70;2.17;;;22.60;99.90;;;;;;5051464;28;20056;-66
2022/03/17 12:20:14;;;;;;;9.52;1.40;;;22.60;99.90;;;;;;5047715;28;20093;-67
2022/03/17 12:22:47;;;;;;;4.45;1.45;;;22.60;99.90;;;;;;5053311;28;20029;-67
2022/03/17 12:25:24;;;;;;;9.82;2.42;;;22.60;99.90;;;;;;5044613;28;20029;-66
2022/03/17 12:27:53;;;;;;;11.05;1.83;;;22.60;99.90;;;;;;5049134;28;20060;-67
2022/03/17 12:30:21;;;;;;;9.27;1.70;;;22.60;99.90;;;;;;5054173;28;20021;-67
2022/03/17 12:32:54;;;;;;;6.60;1.08;;;22.60;99.90;;;;;;5043041;28;20030;-66
2022/03/17 12:35:27;;;;;;;10.88;2.22;;;22.60;99.90;;;;;;5043916;28;20042;-67
2022/03/17 12:38:09;;;;;;;7.18;1.38;;;22.50;99.90;;;;;;5043229;28;20017;-66
2022/03/17 12:40:47;;;;;;;7.90;1.33;;;22.60;99.90;;;;;;5042648;28;20041;-66
2022/03/17 12:43:19;;;;;;;7.88;1.38;;;22.50;99.90;;;;;;5046383;28;20053;-66
2022/03/17 12:45:49;;;;;;;9.43;2.33;;;22.50;99.90;;;;;;5053838;28;20033;-67
2022/03/17 12:48:17;;;;;;;8.90;1.42;;;22.50;99.90;;;;;;5057354;28;20025;-66
2022/03/17 12:50:45;;;;;;;10.70;1.70;;;22.50;99.90;;;;;;5051719;28;20014;-67
2022/03/17 12:53:14;;;;;;;8.15;1.50;;;22.50;99.90;;;;;;5051564;28;20026;-67
2022/03/17 12:55:41;;;;;;;8.95;2.30;;;22.50;99.90;;;;;;5053030;28;20063;-66
2022/03/17 12:58:13;;;;;;;12.77;2.30;;;22.50;99.90;;;;;;5049282;28;20029;-66
2022/03/17 13:00:44;;;;;;;15.05;1.58;;;22.50;99.90;;;;;;5048116;28;20041;-66
2022/03/17 13:03:21;;;;;;;7.90;1.48;;;22.50;99.90;;;;;;5052278;28;20048;-66
2022/03/17 13:08:40;;;;;;;13.77;2.72;;;22.50;99.90;;;;;;5047094;28;20092;-66
2022/03/17 13:16:46;;;;;;;11.77;2.10;;;22.40;99.90;;;;;;5052658;28;20182;-67
2022/03/17 13:19:14;;;;;;;6.78;1.38;;;22.40;99.90;;;;;;5056326;28;20021;-66